Flight Track Log - Related Links

Times and Time Zones

All times are in EDT time to prevent confusion due to time zone crossing. See the UAL4434 flight status page for this flight to view local times or setup timezone preferences in your user account.

Time Position Orientation Groundspeed Altitude Reporting Facility
EDT Latitude Longitude Course Direction KTS MPH feet Rate Location/Type
Wed 12:28:08 PM 40.6333 -74.2000 40° Northeast 200 230 2,600  Level New TRACON
Wed 12:29:08 PM 40.7000 -74.2167 349° North 260 299 4,800 2,250 Climbing New TRACON
Wed 12:30:08 PM 40.7667 -74.1667 30° Northeast 279 321 7,100 2,150 Climbing New TRACON
Wed 12:31:08 PM 40.8333 -74.1000 37° Northeast 305 351 9,100 1,255 Climbing New TRACON
Wed 12:33:00 PM 41.0148 -73.8001 40° Northeast  Level FlightAware
Wed 12:33:24 PM 40.9406 -73.8631 59° Northeast 370 426 11,200  Level Boston Center
Wed 12:34:28 PM 41.0150 -73.7517 48° Northeast 387 445 12,300 1,065 Climbing Boston Center
Wed 12:35:28 PM 41.1117 -73.6614 35° Northeast 394 453 13,400 1,016 Climbing Boston Center
Wed 12:36:32 PM 41.2031 -73.5747 35° Northeast 399 459 14,400 968 Climbing Boston Center
Wed 12:37:32 PM 41.2844 -73.4722 43° Northeast 403 464 15,400 1,041 Climbing Boston Center
Wed 12:38:33 PM 41.3742 -73.3622 43° Northeast 405 466 16,500 787 Climbing Boston Center
Wed 12:39:34 PM 41.4686 -73.2836 32° Northeast 407 468 17,000 246 Climbing Boston Center
Wed 12:40:35 PM 41.5817 -73.2017 28° Northeast 425 489 17,000  Level Boston Center
Wed 12:41:39 PM 41.6886 -73.1233 29° Northeast 434 499 17,000  Level Boston Center
Wed 12:42:39 PM 41.7947 -73.0453 29° Northeast 436 502 17,000  Level Boston Center
Wed 12:43:43 PM 41.9086 -72.9608 29° Northeast 435 501 17,000  Level Boston Center
Wed 12:44:44 PM 42.0139 -72.8825 29° Northeast 434 499 17,000  Level Boston Center
Wed 12:45:44 PM 42.1197 -72.8036 29° Northeast 433 498 17,000  Level Boston Center
Wed 12:46:47 PM 42.2244 -72.7242 29° Northeast 433 498 17,000 -339 Level Boston Center
Wed 12:47:48 PM 42.3361 -72.6397 29° Northeast 431 496 16,300 -836 Descending Boston Center
Wed 12:48:49 PM 42.4378 -72.5631 29° Northeast 425 489 15,300 -624 Descending Boston Center
Wed 12:49:53 PM 42.5347 -72.4906 29° Northeast 408 470 15,000 -720 Descending Boston Center
Wed 12:50:54 PM 42.6319 -72.4153 30° Northeast 406 467 13,800 -1,574 Descending Boston Center
Wed 12:51:55 PM 42.7308 -72.3414 29° Northeast 408 470 11,800 -1,672 Descending Boston Center
Wed 12:52:56 PM 42.7978 -72.2219 53° Northeast 363 418 10,400 -1,131 Descending Boston Center
Wed 12:53:57 PM 42.8094 -72.0956 83° East 314 361 9,500 -919 Descending Boston Center
Wed 12:55:00 PM 42.8400 -71.9889 69° East 307 353 8,500 -976 Descending Boston Center
Wed 12:56:00 PM 42.8764 -71.8864 64° Northeast 304 350 7,500 -1,041 Descending Boston Center
Wed 12:57:01 PM 42.9072 -71.7722 70° East 303 349 6,400 -968 Descending Boston Center
Wed 12:58:04 PM 42.9278 -71.6669 75° East 291 335 5,500 -1,161 Descending Boston Center
Wed 12:59:05 PM 42.9497 -71.5656 73° East 280 322 4,000 -1,488 Descending Boston Center
Wed 01:00:05 PM 42.9919 -71.4836 55° Northeast 249 287 2,500 -1,065 Descending Boston Center
Wed 01:01:09 PM 43.0278 -71.4189 53° Northeast 229 264 1,800 -480 Descending Boston Center
Wed 01:02:10 PM 42.9908 -71.3925 152° Southeast 158 182 1,500 -545 Descending Boston Center
Wed 01:03:10 PM 42.9553 -71.4158 206° Southwest 139 160 700 -537 Descending Boston Center
Wed 01:04:13 PM 42.9308 -71.4442 220° Southwest 134 154 400 -286 Descending Boston Center

Login

Don't have an account? Register now (free) for customized features, flight alerts, and more!